Address 0x76569d69234e1788459696e4bc4c9f3af06fd022

 
Txn Hash
Block
From
To
Value [Txn Fee]
0x04aeaeab7612186d1c34be9c538a9d025f102ea546e5d93d7d5c6c7860cd38db71099962021-05-03 20:12:424 days 8 hrs ago0x76569d69234e1788459696e4bc4c9f3af06fd022OUT0x6cbd6face9c2a54a236de7aa42d242c86c19bd9b0.6 BNB0.000105
0xf25dcb1f948dbfc8a9eee0851dcbeadca32128ee8d7234310478ba72686c7ad371053142021-05-03 16:16:324 days 12 hrs ago0x76569d69234e1788459696e4bc4c9f3af06fd022OUT0x6cbd6face9c2a54a236de7aa42d242c86c19bd9b0.1 BNB0.000105
0x40e33f431668aab2a222c2c962aa5128cdbd6dbbd87b9d510e1895ff4d06063270905712021-05-03 3:44:455 days 1 hr ago0x76569d69234e1788459696e4bc4c9f3af06fd022OUT PancakeSwap: Router v20 BNB0.000563655
0x1d73005bcd42dfe17761eb6bfb3afacae9ca6bdfa8b1a1c7a319f7484b12c52d70904642021-05-03 3:39:245 days 1 hr ago0x76569d69234e1788459696e4bc4c9f3af06fd022OUT OpenOcean0.2877 BNB0.001112075
0x114f3b5b23028f3f81a473b79c7f257a0d48604f24d7ddba6c6eafc5275c457d70901892021-05-03 3:25:395 days 1 hr ago0x76569d69234e1788459696e4bc4c9f3af06fd022OUT PancakeSwap: Router v20.02 BNB0.000156445
0x7dcdd24f29180e2c4eb4d60d16aa016ff22f8030d32df8ddb829a96af7d0e78370901772021-05-03 3:25:035 days 1 hr ago0x76569d69234e1788459696e4bc4c9f3af06fd022OUT PancakeSwap: Router v20.01 BNB0.00059785
0xdef165d8c48a24cb32b289f2a5c447028a449fba618454d64b57da6780c5e38f70897312021-05-03 3:02:455 days 2 hrs ago0x76569d69234e1788459696e4bc4c9f3af06fd022OUT PancakeSwap: Router v20 BNB0.000640505
0x26188a43418b523e2c152cac9529dbcae5e8e4797d5298c9d89816b14191f3db70897212021-05-03 3:02:155 days 2 hrs ago0x76569d69234e1788459696e4bc4c9f3af06fd022OUT Binance: WBNB Token0 BNB0.00022132
0xaeefc314a004a45bea007e439767cd68d5c20924b50b43371a9ab3135d462a5570897072021-05-03 3:01:335 days 2 hrs ago0x76569d69234e1788459696e4bc4c9f3af06fd022OUT Binance: WBNB Token0.1 BNB0.00014369
0x8c7b1d584104a3bb4457ed88490c5d28b7b469b4522e3eda8a86069facdb092f70897012021-05-03 3:01:155 days 2 hrs ago0x76569d69234e1788459696e4bc4c9f3af06fd022OUT Binance: WBNB Token0.1 BNB0.00021869
0x8bb9b2ec49a3aa958ebe9002915b7f723bf1932420d1cacbdb4d66d20c1edf5c69684172021-04-28 20:51:319 days 8 hrs ago0x76569d69234e1788459696e4bc4c9f3af06fd022OUT0x5139527ce23e42a35a4f44f36251c567ead0bede1.4 BNB0.000105
0x1cbdc2525443401c5978061223eee3b09913ae412b9eadf3c289fb0768130ab269683132021-04-28 20:46:199 days 8 hrs ago0x76569d69234e1788459696e4bc4c9f3af06fd022OUT PancakeSwap: Router v20 BNB0.00055313
0xb90d4de157962cf673f8a10373953c1ac48ae7072a9399148d986f918075f48d68946382021-04-26 6:52:1411 days 22 hrs ago0x76569d69234e1788459696e4bc4c9f3af06fd022OUT PancakeSwap: Router v20 BNB0.001055955
0xaf856560f58d605e905e7671dfe8c01bf402016781c9aa22e86b39b97486ce0f68943762021-04-26 6:39:0811 days 22 hrs ago0x76569d69234e1788459696e4bc4c9f3af06fd022OUT PancakeSwap: Router v20 BNB0.001324685
0xdc54b6c1cfe6bb8c97147401ae948b08c27c83380c7129c7d49d433bcda61f2968943662021-04-26 6:38:3811 days 22 hrs ago0x76569d69234e1788459696e4bc4c9f3af06fd022OUT Pancake Bunny: BUNNY Token0 BNB0.000222035
0x62b64e0b66e37055654b0acb7cda012d05455a47d68963d402cf8ccc005e06f168787532021-04-25 17:37:0812 days 11 hrs ago0x76569d69234e1788459696e4bc4c9f3af06fd022OUT PancakeSwap: Router v20.5 BNB0.00059636
0xf0eff446fcff6380fff29f8c1f42659ad06a2ebea7fc6f39ab7e0acd1cf021b868783582021-04-25 17:17:2312 days 11 hrs ago0x76569d69234e1788459696e4bc4c9f3af06fd022OUT PancakeSwap: Router v21 BNB0.00061134
0x384f87056bc53c558000e2a4e6a6d363da916db7c96f88efa2921dcf23569dda68782192021-04-25 17:10:2612 days 11 hrs ago0x76569d69234e1788459696e4bc4c9f3af06fd022OUT PancakeSwap: Router v20.75 BNB0.00067136
0x2fdb9f2f024c21715f7b1e2ddef77daaeab30904616ac205afa35c11174a8ff068780852021-04-25 17:03:4412 days 12 hrs ago0x76569d69234e1788459696e4bc4c9f3af06fd022OUT PancakeSwap: Router v20.1 BNB0.00089088
0x37c60cccec3b0091e512fbce4b9c49e4d6a66b1873a2bf2165d631881b98346968780622021-04-25 17:02:3512 days 12 hrs ago0x76569d69234e1788459696e4bc4c9f3af06fd022OUT PancakeSwap: Router v20.1 BNB0.00096588
0x08e2853b77676cb037b0c331ffd8afa5895f89ae04b23c57bd1bfff3239c3d3b68775212021-04-25 16:35:3212 days 12 hrs ago0x76569d69234e1788459696e4bc4c9f3af06fd022OUT PancakeSwap: Router v20.05 BNB0.001024985
0x3e9c60a160a076752ada1743ffa91d86ec37bc9e28652096bdcdaef92119c36e68772832021-04-25 16:23:3812 days 12 hrs ago0x76569d69234e1788459696e4bc4c9f3af06fd022OUT PancakeSwap: Router v21 BNB0.000671115
0x0e41102268d9fd5336bc2623e4f207f48dedc37e89d7ba85023d11f2d9b7a4f454685752021-03-07 9:41:4261 days 19 hrs ago0x76569d69234e1788459696e4bc4c9f3af06fd022OUT BSC: Token Hub2.8601727 BNB0.00076048
0x7fb4901f20064690c4c6302563b43fb0474874b9f982a11aad304bce012dbbd154685232021-03-07 9:39:0661 days 19 hrs ago0x5139527ce23e42a35a4f44f36251c567ead0bede IN 0x76569d69234e1788459696e4bc4c9f3af06fd0222.958172792081095 BNB0.00021
0x83f5cf16f96fb7ba13db632032f1b9fd91cdb6b554be2e948ef8d9c2c560828954684872021-03-07 9:37:1861 days 19 hrs ago0x5139527ce23e42a35a4f44f36251c567ead0bede IN 0x76569d69234e1788459696e4bc4c9f3af06fd0220 BNB0.00021
[ Download CSV Export 
Latest 7 internal transactions
Parent Txn Hash Block From To Value
0x48f60fe21a1d9399a7f239f54439916dadb938870baf59e702f0a75c6dedfd2b71097602021-05-03 20:00:544 days 9 hrs ago BSC: Token Hub0x76569d69234e1788459696e4bc4c9f3af06fd0220.975925 BNB
0xdad280680129797fb85a386e03a37e81eea33f4f09c7762d15da3f1fcaed702969683692021-04-28 20:49:079 days 8 hrs ago BSC: Token Hub0x76569d69234e1788459696e4bc4c9f3af06fd0220.975925 BNB
0x1cbdc2525443401c5978061223eee3b09913ae412b9eadf3c289fb0768130ab269683132021-04-28 20:46:199 days 8 hrs ago PancakeSwap: Router v20x76569d69234e1788459696e4bc4c9f3af06fd0220.859301073071797787 BNB
0xe7c07c58e02943596c08c859653c3399df11b738fc735c20e616de5c53401c5d68771092021-04-25 16:14:5612 days 12 hrs ago BSC: Token Hub0x76569d69234e1788459696e4bc4c9f3af06fd0223.675925 BNB
0x4d02816a8ec905e5ba7b6c3e70c98ff07b9f67100ed98a106a66e9e7646ef32e52071882021-02-26 6:06:4970 days 22 hrs ago BSC: Token Hub0x76569d69234e1788459696e4bc4c9f3af06fd0221.9958 BNB
0x9ddb469bae83f33b8a334e705bf1d4d50b98e6a4d64428762cd661868d42397c51955132021-02-25 20:21:1371 days 8 hrs ago BSC: Token Hub0x76569d69234e1788459696e4bc4c9f3af06fd0220.6638 BNB
0x119b935a6f476bbdc8830bf9ceb9542a8f0b3c39f32a6b5eb4879437fb46440a51946632021-02-25 19:38:4271 days 9 hrs ago BSC: Token Hub0x76569d69234e1788459696e4bc4c9f3af06fd0220.7958 BNB
[ Download CSV Export 
Loading

Contract Name:
0 BNB

Compiler Version
0

Optimization Enabled:
0 BNB

Other Settings:
-NA-
Block Transaction Gas Used Reward
Age Block Fee Address BC Fee Address Voting Power Jailed Incoming
Block Uncle Number Difficulty Gas Used Reward
Loading
Loading
Make sure to use the "Vote Down" button for any spammy posts, and the "Vote Up" for interesting conversations.